Time;durP1;ratioP1;P1;durP2;ratioP2;P2;SDS_P1;SDS_P2;PMS_P1;PMS_P2;Temp;Humidity;BMP_temperature;BMP_pressure;BME280_temperature;BME280_humidity;BME280_pressure;Samples;Min_cycle;Max_cycle;Signal;HPM_P1;HPM_P2
2023/09/06 00:01:15;;;;;;;2.30;1.70;;;21.90;58.70;;;;;;5042744;28;20124;-50
2023/09/06 00:03:42;;;;;;;1.90;1.80;;;21.90;58.90;;;;;;5044145;28;20049;-53
2023/09/06 00:06:11;;;;;;;2.60;1.83;;;21.90;58.90;;;;;;5048034;28;20047;-53
2023/09/06 00:08:40;;;;;;;2.78;2.10;;;21.90;59.00;;;;;;5048046;28;20031;-49
2023/09/06 00:11:06;;;;;;;2.42;2.22;;;21.90;59.00;;;;;;5048168;28;20068;-52
2023/09/06 00:13:34;;;;;;;2.28;1.83;;;21.80;59.00;;;;;;5046485;28;20041;-50
2023/09/06 00:16:08;;;;;;;1.95;1.73;;;21.80;59.80;;;;;;5047404;28;20095;-48
2023/09/06 00:18:37;;;;;;;3.13;1.98;;;21.70;58.90;;;;;;5048814;28;20056;-49
2023/09/06 00:21:07;;;;;;;2.05;1.88;;;21.70;59.00;;;;;;5047636;28;20120;-50
2023/09/06 00:23:34;;;;;;;1.83;1.60;;;21.70;58.80;;;;;;5044789;28;20041;-52
2023/09/06 00:26:06;;;;;;;2.10;1.90;;;21.70;58.90;;;;;;5047689;28;20057;-50
2023/09/06 00:28:34;;;;;;;1.70;1.60;;;21.70;59.00;;;;;;5047436;28;20052;-49
2023/09/06 00:31:01;;;;;;;1.73;1.63;;;21.60;59.10;;;;;;5047147;28;20037;-47
2023/09/06 00:33:33;;;;;;;1.70;1.60;;;21.60;59.00;;;;;;5038825;28;20504;-50
2023/09/06 00:36:06;;;;;;;2.97;1.73;;;21.50;58.90;;;;;;5048070;28;20449;-48
2023/09/06 00:38:33;;;;;;;2.50;1.80;;;21.50;59.20;;;;;;5046144;28;20057;-52
2023/09/06 00:41:04;;;;;;;1.95;1.75;;;21.50;59.20;;;;;;5042927;28;20057;-49
2023/09/06 00:43:31;;;;;;;2.58;2.20;;;21.40;59.20;;;;;;5046705;28;20586;-50
2023/09/06 00:46:01;;;;;;;2.75;1.80;;;21.40;59.10;;;;;;5045120;28;20138;-51
2023/09/06 00:48:33;;;;;;;2.28;1.67;;;21.40;59.40;;;;;;5038496;28;20564;-48
2023/09/06 00:51:03;;;;;;;2.22;2.03;;;21.30;59.30;;;;;;5047287;28;20551;-47
2023/09/06 00:53:34;;;;;;;1.85;1.67;;;21.30;59.40;;;;;;5047058;28;20466;-50
2023/09/06 00:56:08;;;;;;;2.10;1.90;;;21.20;59.30;;;;;;5046669;28;20029;-49
2023/09/06 00:58:36;;;;;;;2.15;1.60;;;21.20;59.80;;;;;;5050965;28;20037;-49
2023/09/06 01:01:08;;;;;;;2.72;2.03;;;21.20;59.60;;;;;;5049685;28;20160;-52
2023/09/06 01:03:40;;;;;;;4.85;2.78;;;21.20;59.80;;;;;;5046477;28;20045;-50
2023/09/06 01:06:18;;;;;;;3.25;2.40;;;21.10;59.40;;;;;;5051182;28;20073;-49
2023/09/06 01:08:55;;;;;;;2.05;1.95;;;21.10;60.00;;;;;;5050498;28;20507;-51
2023/09/06 01:11:29;;;;;;;3.35;1.88;;;21.10;60.20;;;;;;5044891;28;20044;-51
2023/09/06 01:14:01;;;;;;;2.00;1.80;;;21.00;59.80;;;;;;5050652;28;20681;-50
2023/09/06 01:16:41;;;;;;;2.25;2.05;;;21.00;60.00;;;;;;5049595;28;20140;-51
2023/09/06 01:19:15;;;;;;;4.00;2.10;;;21.00;60.50;;;;;;5048128;28;20453;-52
2023/09/06 01:22:35;;;;;;;2.13;1.90;;;20.90;60.90;;;;;;5049573;28;20391;-52
2023/09/06 01:25:02;;;;;;;3.05;2.38;;;20.90;60.80;;;;;;5039535;28;20045;-51
2023/09/06 01:27:34;;;;;;;1.80;1.70;;;20.90;60.00;;;;;;5038503;28;20045;-49
2023/09/06 01:30:01;;;;;;;1.80;1.70;;;20.90;60.20;;;;;;5050560;28;20624;-48
2023/09/06 01:32:31;;;;;;;3.22;2.17;;;20.80;60.40;;;;;;5045085;28;20049;-48
2023/09/06 01:35:00;;;;;;;2.35;2.08;;;20.80;60.40;;;;;;5049259;28;20048;-48
2023/09/06 01:37:32;;;;;;;2.05;1.75;;;20.80;60.60;;;;;;5049786;28;20076;-48
2023/09/06 01:39:59;;;;;;;2.75;2.38;;;20.80;60.50;;;;;;5049489;28;20103;-49
2023/09/06 01:42:27;;;;;;;2.38;1.92;;;20.80;60.40;;;;;;5047912;28;20107;-50
2023/09/06 01:45:01;;;;;;;3.67;1.90;;;20.70;60.50;;;;;;5050567;28;20048;-51
2023/09/06 01:47:28;;;;;;;2.30;2.10;;;20.70;60.50;;;;;;5050995;28;20044;-50
2023/09/06 01:49:57;;;;;;;2.20;2.00;;;20.70;60.50;;;;;;5042644;28;20042;-51
2023/09/06 01:52:27;;;;;;;2.15;1.95;;;20.70;60.50;;;;;;5047880;28;20056;-50
2023/09/06 01:54:53;;;;;;;3.05;2.20;;;20.70;60.80;;;;;;5039157;28;20503;-51
2023/09/06 01:57:21;;;;;;;3.50;2.10;;;20.60;61.00;;;;;;5042348;28;20617;-48
2023/09/06 01:59:50;;;;;;;2.00;1.90;;;20.60;61.10;;;;;;5044063;28;20503;-49
2023/09/06 02:02:17;;;;;;;2.45;1.80;;;20.70;61.30;;;;;;5046042;28;20520;-52
2023/09/06 02:04:51;;;;;;;2.53;2.25;;;20.60;61.30;;;;;;5048827;28;20037;-49
2023/09/06 02:07:20;;;;;;;2.40;2.20;;;20.60;61.40;;;;;;5029590;28;20068;-52
2023/09/06 02:09:50;;;;;;;2.10;1.90;;;20.60;61.10;;;;;;5048522;28;20053;-49
2023/09/06 02:12:18;;;;;;;4.15;1.90;;;20.60;61.00;;;;;;5047088;28;20048;-49
2023/09/06 02:14:47;;;;;;;3.38;2.00;;;20.60;61.20;;;;;;5049940;28;20075;-48
2023/09/06 02:17:14;;;;;;;3.05;2.20;;;20.50;61.20;;;;;;5061590;28;20048;-49
2023/09/06 02:19:47;;;;;;;2.67;2.10;;;20.50;61.20;;;;;;5044145;28;20037;-50
2023/09/06 02:22:14;;;;;;;2.17;1.88;;;20.50;61.20;;;;;;5049845;28;20118;-47
2023/09/06 02:24:43;;;;;;;2.10;1.88;;;20.50;61.20;;;;;;5046166;28;20037;-52
2023/09/06 02:27:14;;;;;;;2.70;2.10;;;20.50;61.30;;;;;;5048284;28;20043;-51
2023/09/06 02:29:41;;;;;;;4.28;2.10;;;20.50;61.30;;;;;;5044643;28;20132;-49
2023/09/06 02:32:08;;;;;;;2.47;1.70;;;20.40;61.20;;;;;;5048249;28;20522;-52
2023/09/06 02:34:37;;;;;;;3.47;2.33;;;20.40;61.20;;;;;;5046964;28;20103;-51
2023/09/06 02:37:04;;;;;;;2.53;1.70;;;20.40;61.20;;;;;;5048640;28;20143;-50
2023/09/06 02:39:41;;;;;;;2.40;2.20;;;20.40;61.20;;;;;;5049848;28;20041;-48
2023/09/06 02:42:08;;;;;;;5.18;2.65;;;20.30;61.20;;;;;;5047207;28;20098;-50
2023/09/06 02:44:34;;;;;;;2.83;2.17;;;20.30;61.30;;;;;;5049517;28;20578;-49
2023/09/06 02:47:03;;;;;;;1.92;1.83;;;20.30;61.30;;;;;;5048737;28;20061;-48
2023/09/06 02:49:30;;;;;;;2.13;1.67;;;20.30;61.30;;;;;;5041915;28;20144;-51
2023/09/06 02:52:00;;;;;;;8.05;2.38;;;20.30;61.30;;;;;;5049753;28;20384;-51
2023/09/06 02:54:27;;;;;;;3.25;2.20;;;20.20;61.30;;;;;;5044555;28;20056;-47
2023/09/06 02:56:57;;;;;;;3.38;1.90;;;20.10;61.20;;;;;;5041772;28;20037;-52
2023/09/06 02:59:26;;;;;;;2.63;1.67;;;20.10;61.20;;;;;;5048879;28;20049;-49
2023/09/06 03:01:59;;;;;;;2.35;2.13;;;20.10;61.30;;;;;;5049221;28;20037;-53
2023/09/06 03:04:33;;;;;;;2.00;1.88;;;20.00;61.20;;;;;;5047233;28;20040;-49
2023/09/06 03:07:01;;;;;;;2.45;2.20;;;20.00;61.20;;;;;;5049060;28;20032;-49
2023/09/06 03:09:28;;;;;;;1.85;1.50;;;20.00;61.10;;;;;;5047367;28;20064;-51
2023/09/06 03:11:58;;;;;;;2.03;1.83;;;20.00;61.10;;;;;;5046682;28;20049;-48
2023/09/06 03:14:30;;;;;;;2.28;2.08;;;19.90;61.50;;;;;;5048005;28;20041;-48
2023/09/06 03:17:08;;;;;;;2.25;1.98;;;19.90;61.20;;;;;;5048297;28;20465;-52
2023/09/06 03:19:41;;;;;;;4.13;2.00;;;19.90;61.50;;;;;;5045450;28;20051;-52
2023/09/06 03:22:12;;;;;;;2.35;2.15;;;19.80;61.20;;;;;;5047107;28;20139;-49
2023/09/06 03:24:41;;;;;;;2.72;2.03;;;19.80;61.50;;;;;;5047580;28;20131;-48
2023/09/06 03:27:08;;;;;;;4.20;1.90;;;19.80;61.70;;;;;;5046607;28;20134;-48
2023/09/06 03:29:38;;;;;;;2.47;2.28;;;19.80;61.70;;;;;;5048160;28;20551;-49
2023/09/06 03:32:09;;;;;;;2.65;2.00;;;19.70;61.70;;;;;;5046081;28;20060;-47
2023/09/06 03:34:40;;;;;;;2.08;1.80;;;19.70;61.60;;;;;;5046744;28;20127;-49
2023/09/06 03:37:18;;;;;;;2.17;1.95;;;19.70;62.00;;;;;;5049434;28;20045;-48
2023/09/06 03:39:53;;;;;;;3.00;1.90;;;19.70;61.90;;;;;;5060582;28;20509;-48
2023/09/06 03:42:23;;;;;;;1.73;1.63;;;19.60;61.80;;;;;;5024136;28;20033;-51
2023/09/06 03:44:52;;;;;;;;;;;19.60;62.10;;;;;;5047882;28;20064;-49
2023/09/06 03:47:21;;;;;;;2.22;1.90;;;19.70;61.60;;;;;;5048925;28;19964;-49
2023/09/06 03:49:52;;;;;;;2.40;2.20;;;19.60;61.20;;;;;;5043878;28;20053;-48
2023/09/06 03:52:31;;;;;;;;;;;;;;;;;;;;;
2023/09/06 03:54:59;;;;;;;2.70;1.70;;;19.50;61.50;;;;;;5045410;28;20419;-53
2023/09/06 03:57:26;;;;;;;1.77;1.48;;;19.50;61.60;;;;;;5046903;28;20052;-52
2023/09/06 03:59:56;;;;;;;1.90;1.67;;;19.50;61.60;;;;;;5045803;28;20059;-48
2023/09/06 04:02:40;;;;;;;2.00;1.83;;;19.40;61.70;;;;;;5046276;28;20056;-49
2023/09/06 04:05:11;;;;;;;2.70;2.00;;;19.40;61.60;;;;;;5046770;28;20045;-47
2023/09/06 04:07:40;;;;;;;3.58;2.00;;;19.40;61.80;;;;;;5048124;28;20037;-51
2023/09/06 04:10:16;;;;;;;3.13;2.08;;;19.40;62.00;;;;;;5046643;28;20083;-51
2023/09/06 04:12:50;;;;;;;2.17;1.67;;;19.30;61.70;;;;;;5045671;28;20072;-48
2023/09/06 04:15:21;;;;;;;3.03;1.90;;;19.30;61.80;;;;;;5046991;28;20621;-51
2023/09/06 04:18:02;;;;;;;3.15;1.98;;;19.30;61.90;;;;;;5047009;28;20045;-49
2023/09/06 04:20:31;;;;;;;2.28;1.67;;;19.30;62.30;;;;;;5044647;28;20061;-50
2023/09/06 04:22:59;;;;;;;2.50;2.00;;;19.20;61.90;;;;;;5047186;28;20045;-49
2023/09/06 04:25:28;;;;;;;3.28;2.08;;;19.20;62.00;;;;;;5040830;28;20132;-50
2023/09/06 04:27:55;;;;;;;2.60;2.08;;;19.20;62.00;;;;;;5044881;28;20037;-49
2023/09/06 04:30:32;;;;;;;4.60;2.28;;;19.10;62.00;;;;;;5047750;28;20072;-49
2023/09/06 04:33:05;;;;;;;2.92;2.00;;;19.10;62.10;;;;;;5046065;28;20132;-49
2023/09/06 04:35:47;;;;;;;2.67;2.08;;;19.10;62.10;;;;;;5043370;28;20033;-52
2023/09/06 04:38:17;;;;;;;4.93;2.47;;;19.00;62.40;;;;;;5047142;28;20649;-52
2023/09/06 04:40:47;;;;;;;2.42;1.90;;;19.00;62.00;;;;;;5045000;28;20041;-48
2023/09/06 04:43:17;;;;;;;4.30;2.05;;;19.00;62.20;;;;;;5045624;28;20038;-52
2023/09/06 04:45:44;;;;;;;5.30;2.42;;;18.90;62.10;;;;;;5041784;28;20115;-52
2023/09/06 04:48:16;;;;;;;2.75;2.28;;;18.90;62.10;;;;;;5044434;28;20052;-48
2023/09/06 04:50:47;;;;;;;3.15;2.20;;;18.90;62.30;;;;;;5044727;28;20052;-50
2023/09/06 04:53:17;;;;;;;2.67;2.10;;;18.90;62.30;;;;;;5043180;28;20076;-49
2023/09/06 04:55:49;;;;;;;4.32;1.98;;;18.90;62.40;;;;;;5038090;28;20060;-50
2023/09/06 04:58:21;;;;;;;2.60;2.05;;;18.90;62.40;;;;;;5050222;28;20491;-50
2023/09/06 05:00:48;;;;;;;3.28;1.77;;;18.80;62.40;;;;;;5047424;28;20065;-50
2023/09/06 05:03:19;;;;;;;8.85;2.42;;;18.80;62.40;;;;;;5047908;28;20033;-53
2023/09/06 05:05:51;;;;;;;2.50;2.20;;;18.80;62.60;;;;;;5050052;28;20495;-49
2023/09/06 05:08:19;;;;;;;2.15;1.83;;;18.70;62.50;;;;;;5049516;28;20056;-51
2023/09/06 05:10:51;;;;;;;1.90;1.70;;;18.70;62.60;;;;;;5046189;28;20415;-49
2023/09/06 05:13:20;;;;;;;7.43;2.42;;;18.70;62.90;;;;;;5048898;28;20049;-52
2023/09/06 05:15:46;;;;;;;4.30;2.28;;;18.70;62.70;;;;;;5049025;28;20051;-51
2023/09/06 05:18:14;;;;;;;3.63;2.10;;;18.70;62.80;;;;;;5061383;28;20045;-52
2023/09/06 05:20:43;;;;;;;4.65;1.98;;;18.70;62.90;;;;;;5048292;28;20077;-51
2023/09/06 05:23:14;;;;;;;2.17;1.88;;;18.70;62.80;;;;;;5046613;28;20128;-50
2023/09/06 05:25:44;;;;;;;2.72;1.90;;;18.70;62.90;;;;;;5049265;28;20045;-48
2023/09/06 05:28:17;;;;;;;3.45;2.15;;;18.70;63.00;;;;;;5044980;28;20056;-49
2023/09/06 05:30:49;;;;;;;;;;;18.70;63.10;;;;;;5047140;28;20400;-51
2023/09/06 05:33:17;;;;;;;3.95;2.72;;;18.80;62.90;;;;;;5046434;28;19924;-50
2023/09/06 05:35:44;;;;;;;2.83;2.33;;;18.70;62.70;;;;;;5046961;28;21117;-49
2023/09/06 05:38:13;;;;;;;2.33;2.13;;;18.70;63.00;;;;;;5047953;28;20049;-49
2023/09/06 05:40:45;;;;;;;3.72;2.75;;;18.70;63.10;;;;;;5041626;28;20060;-48
2023/09/06 05:43:17;;;;;;;2.75;2.50;;;18.70;63.20;;;;;;5047312;28;20128;-50
2023/09/06 05:45:44;;;;;;;2.60;2.40;;;18.70;63.30;;;;;;5048482;28;20487;-50
2023/09/06 05:48:12;;;;;;;3.75;1.92;;;18.70;63.40;;;;;;5047248;28;20756;-47
2023/09/06 05:50:40;;;;;;;3.15;2.47;;;18.70;63.50;;;;;;5043501;28;20128;-52
2023/09/06 05:53:07;;;;;;;6.63;2.78;;;18.70;63.70;;;;;;5048438;28;20048;-53
2023/09/06 05:55:36;;;;;;;3.70;2.42;;;18.80;63.80;;;;;;5050192;28;20059;-48
2023/09/06 05:58:04;;;;;;;2.40;2.20;;;18.80;64.00;;;;;;5046732;28;20049;-49
2023/09/06 06:00:32;;;;;;;4.00;2.60;;;18.70;63.80;;;;;;5048057;28;20048;-48
2023/09/06 06:03:03;;;;;;;3.17;2.33;;;18.80;64.30;;;;;;5045894;28;20052;-49
2023/09/06 06:05:30;;;;;;;3.88;2.80;;;18.80;64.30;;;;;;5049725;28;20051;-48
2023/09/06 06:07:59;;;;;;;4.20;3.20;;;18.80;64.50;;;;;;5044036;28;20036;-47
2023/09/06 06:10:34;;;;;;;3.28;2.97;;;18.90;64.70;;;;;;5048841;28;20037;-48
2023/09/06 06:13:03;;;;;;;3.00;2.70;;;18.90;64.80;;;;;;5049355;28;20068;-47
2023/09/06 06:15:31;;;;;;;4.38;2.65;;;18.90;64.80;;;;;;5047371;28;20072;-47
2023/09/06 06:17:57;;;;;;;3.47;3.17;;;18.90;64.90;;;;;;5047528;28;20120;-52
2023/09/06 06:20:24;;;;;;;5.38;3.28;;;19.00;65.10;;;;;;5050600;28;20049;-46
2023/09/06 06:23:09;;;;;;;3.13;2.80;;;19.00;65.20;;;;;;5050558;28;20068;-47
2023/09/06 06:25:36;;;;;;;2.83;2.45;;;19.10;65.40;;;;;;5047319;28;20065;-51
2023/09/06 06:28:03;;;;;;;4.20;2.78;;;19.10;65.50;;;;;;5049536;28;20388;-50
2023/09/06 06:30:30;;;;;;;5.28;2.70;;;19.10;65.70;;;;;;5049966;28;20041;-49
2023/09/06 06:33:00;;;;;;;6.32;3.80;;;19.20;65.90;;;;;;5047793;28;20064;-48
2023/09/06 06:35:27;;;;;;;7.47;2.97;;;19.20;65.90;;;;;;5046678;28;20519;-53
2023/09/06 06:37:53;;;;;;;4.25;2.75;;;19.20;65.90;;;;;;5046288;28;20048;-51
2023/09/06 06:40:23;;;;;;;4.78;3.20;;;19.30;66.00;;;;;;5047427;28;20613;-52
2023/09/06 06:42:50;;;;;;;4.18;3.30;;;19.30;66.20;;;;;;5049083;28;20491;-48
2023/09/06 06:45:16;;;;;;;6.28;3.38;;;19.30;66.20;;;;;;5050463;28;20045;-48
2023/09/06 06:47:44;;;;;;;5.25;3.47;;;19.40;66.40;;;;;;5049792;28;20611;-52
2023/09/06 06:50:11;;;;;;;5.32;3.90;;;19.40;66.40;;;;;;5046938;28;20041;-48
2023/09/06 06:52:43;;;;;;;6.85;3.60;;;19.50;66.60;;;;;;5038545;28;20547;-48
2023/09/06 06:55:15;;;;;;;5.55;3.95;;;19.50;66.80;;;;;;5036916;28;20091;-49
2023/09/06 06:57:42;;;;;;;6.32;4.00;;;19.60;67.20;;;;;;5041607;28;20040;-50
2023/09/06 07:00:11;;;;;;;9.73;4.25;;;19.60;67.50;;;;;;5048214;28;20052;-49
2023/09/06 07:02:38;;;;;;;4.45;3.92;;;19.60;67.50;;;;;;5047250;28;20045;-51
2023/09/06 07:05:05;;;;;;;4.72;3.10;;;19.70;67.60;;;;;;5046836;28;20048;-49
2023/09/06 07:07:32;;;;;;;6.13;4.13;;;19.80;67.70;;;;;;5049330;28;20115;-50
2023/09/06 07:09:59;;;;;;;4.10;3.28;;;19.80;67.70;;;;;;5049153;28;20499;-50
2023/09/06 07:12:26;;;;;;;8.73;3.40;;;19.90;68.00;;;;;;5048424;28;20503;-48
2023/09/06 07:14:56;;;;;;;5.35;3.30;;;19.90;68.10;;;;;;5044815;28;20523;-50
2023/09/06 07:17:25;;;;;;;4.38;3.80;;;20.10;68.50;;;;;;5047893;28;20555;-50
2023/09/06 07:19:52;;;;;;;5.13;4.00;;;20.10;67.80;;;;;;5046872;28;20087;-50
2023/09/06 07:22:19;;;;;;;3.95;3.28;;;20.10;67.80;;;;;;5046501;28;20045;-48
2023/09/06 07:24:46;;;;;;;6.03;3.35;;;20.20;68.20;;;;;;5046367;28;20544;-50
2023/09/06 07:27:13;;;;;;;5.18;3.70;;;20.30;68.30;;;;;;5049372;28;20626;-52
2023/09/06 07:29:39;;;;;;;4.22;3.40;;;20.30;68.10;;;;;;5042582;28;20037;-52
2023/09/06 07:32:06;;;;;;;5.22;3.42;;;20.40;68.00;;;;;;5043359;28;20053;-52
2023/09/06 07:34:33;;;;;;;6.18;3.58;;;20.50;68.10;;;;;;5039483;28;20050;-48
2023/09/06 07:36:59;;;;;;;6.05;3.13;;;20.50;67.90;;;;;;5047857;28;20052;-50
2023/09/06 07:39:26;;;;;;;5.80;3.78;;;20.60;68.20;;;;;;5048594;28;20476;-48
2023/09/06 07:41:53;;;;;;;8.18;3.20;;;20.60;67.90;;;;;;5044755;28;20444;-49
2023/09/06 07:44:20;;;;;;;5.10;3.72;;;20.70;67.70;;;;;;5049004;28;20064;-49
2023/09/06 07:46:48;;;;;;;6.40;3.55;;;20.80;67.50;;;;;;5048607;28;20530;-48
2023/09/06 07:49:18;;;;;;;7.88;3.65;;;20.90;67.60;;;;;;5046679;28;20106;-51
2023/09/06 07:51:45;;;;;;;5.38;3.28;;;20.90;67.40;;;;;;5047926;28;20056;-49
2023/09/06 07:54:15;;;;;;;5.97;3.08;;;21.00;67.40;;;;;;5049622;28;20071;-48
2023/09/06 07:56:44;;;;;;;5.82;3.90;;;21.10;67.60;;;;;;5045695;28;20041;-52
2023/09/06 07:59:12;;;;;;;6.80;3.63;;;21.10;67.20;;;;;;5049432;28;20534;-51
2023/09/06 08:01:38;;;;;;;3.90;2.90;;;21.30;66.90;;;;;;5045961;28;20041;-50
2023/09/06 08:04:05;;;;;;;4.60;3.33;;;21.30;66.90;;;;;;5046683;28;20434;-52
2023/09/06 08:06:32;;;;;;;4.90;3.40;;;21.40;66.70;;;;;;5045438;28;20041;-48
2023/09/06 08:08:59;;;;;;;4.32;2.65;;;21.40;66.60;;;;;;5049302;28;20552;-49
2023/09/06 08:11:28;;;;;;;6.03;2.92;;;21.50;66.30;;;;;;5044734;28;20481;-50
2023/09/06 08:13:55;;;;;;;3.67;3.08;;;21.60;66.30;;;;;;5047369;28;20120;-50
2023/09/06 08:16:21;;;;;;;4.00;3.20;;;21.70;66.40;;;;;;5050377;28;20045;-50
2023/09/06 08:18:48;;;;;;;3.05;2.70;;;21.70;66.50;;;;;;5048212;28;20120;-50
2023/09/06 08:21:19;;;;;;;5.13;3.42;;;21.80;66.10;;;;;;5050203;28;20045;-47
2023/09/06 08:23:45;;;;;;;3.90;3.30;;;21.90;65.60;;;;;;5043587;28;20048;-50
2023/09/06 08:26:13;;;;;;;5.35;2.95;;;22.00;65.40;;;;;;5044891;28;20120;-51
2023/09/06 08:28:40;;;;;;;8.80;3.72;;;22.00;65.20;;;;;;5042411;28;20065;-52
2023/09/06 08:31:07;;;;;;;4.90;3.20;;;22.10;65.00;;;;;;5044089;28;20404;-53
2023/09/06 08:33:34;;;;;;;3.97;3.13;;;22.20;64.90;;;;;;5043023;28;20040;-52
2023/09/06 08:36:01;;;;;;;6.25;3.35;;;22.10;64.30;;;;;;5045537;28;20051;-52
2023/09/06 08:38:28;;;;;;;3.72;3.40;;;22.30;64.00;;;;;;5044592;28;20049;-48
2023/09/06 08:40:55;;;;;;;4.75;3.22;;;22.40;64.40;;;;;;5044107;28;20061;-49
2023/09/06 08:43:25;;;;;;;6.93;3.08;;;22.40;64.20;;;;;;5044137;28;20037;-51
2023/09/06 08:45:55;;;;;;;;;;;22.50;64.20;;;;;;5039306;28;20611;-51
2023/09/06 08:48:26;;;;;;;4.70;3.05;;;22.60;63.80;;;;;;5040094;28;19998;-50
2023/09/06 08:50:53;;;;;;;3.38;3.08;;;22.70;63.20;;;;;;5041035;28;20045;-51
2023/09/06 08:53:23;;;;;;;3.00;2.65;;;22.70;63.40;;;;;;5042094;28;20419;-50
2023/09/06 08:55:50;;;;;;;3.15;2.88;;;22.80;63.50;;;;;;5038951;28;20067;-51
2023/09/06 08:58:17;;;;;;;6.13;3.40;;;22.90;63.40;;;;;;5038733;28;20080;-50
2023/09/06 09:00:44;;;;;;;6.60;3.17;;;23.00;63.30;;;;;;5040889;28;20131;-52
2023/09/06 09:03:11;;;;;;;5.30;2.97;;;23.00;63.40;;;;;;5044837;28;20051;-53
2023/09/06 09:05:38;;;;;;;3.33;2.97;;;23.10;63.80;;;;;;5046178;28;20504;-52
2023/09/06 09:08:09;;;;;;;3.97;3.13;;;23.10;63.30;;;;;;5039848;28;20164;-52
2023/09/06 09:10:39;;;;;;;4.28;2.72;;;23.30;63.00;;;;;;5037031;28;20494;-53
2023/09/06 09:13:11;;;;;;;4.78;3.30;;;23.30;62.50;;;;;;5048064;28;20740;-52
2023/09/06 09:15:37;;;;;;;4.22;3.22;;;23.40;62.10;;;;;;5042342;28;20128;-52
2023/09/06 09:18:15;;;;;;;3.58;2.95;;;23.50;61.60;;;;;;5045296;28;20044;-49
2023/09/06 09:20:43;;;;;;;5.53;2.88;;;23.50;61.90;;;;;;5048461;28;20530;-48
2023/09/06 09:23:13;;;;;;;4.60;3.00;;;23.60;60.90;;;;;;5046265;28;20037;-50
2023/09/06 09:25:50;;;;;;;3.65;3.08;;;23.70;61.00;;;;;;5045333;28;20030;-49
2023/09/06 09:28:17;;;;;;;3.40;2.65;;;23.70;61.10;;;;;;5050551;28;20033;-48
2023/09/06 09:30:48;;;;;;;3.33;2.83;;;23.80;60.40;;;;;;5050095;28;20391;-50
2023/09/06 09:33:18;;;;;;;4.80;3.30;;;23.90;61.20;;;;;;5045446;28;20648;-48
2023/09/06 09:35:47;;;;;;;3.28;2.65;;;23.90;60.10;;;;;;5046320;28;20634;-49
2023/09/06 09:38:13;;;;;;;4.43;3.28;;;24.00;59.70;;;;;;5045879;28;20699;-52
2023/09/06 09:40:40;;;;;;;2.63;2.42;;;24.00;59.70;;;;;;5045459;28;20045;-51
2023/09/06 09:43:19;;;;;;;3.85;3.00;;;24.10;59.70;;;;;;5051111;28;20130;-48
2023/09/06 09:45:47;;;;;;;3.20;2.88;;;24.20;59.10;;;;;;5051068;28;20045;-51
2023/09/06 09:48:16;;;;;;;4.00;2.90;;;24.20;59.10;;;;;;5046360;28;20045;-53
2023/09/06 09:50:46;;;;;;;5.20;2.47;;;24.30;58.90;;;;;;5049300;28;20088;-49
2023/09/06 09:53:15;;;;;;;2.92;2.63;;;24.40;59.20;;;;;;5053259;28;20465;-49
2023/09/06 09:55:48;;;;;;;4.70;2.97;;;24.50;59.10;;;;;;5053019;28;20483;-50
2023/09/06 09:58:17;;;;;;;7.68;2.80;;;24.50;58.20;;;;;;5050238;28;20481;-53
2023/09/06 10:00:44;;;;;;;2.45;2.22;;;24.60;58.20;;;;;;5048296;28;20483;-55
2023/09/06 10:03:13;;;;;;;2.97;2.58;;;24.70;57.80;;;;;;5047269;28;20048;-56
2023/09/06 10:05:41;;;;;;;5.03;3.00;;;24.70;57.60;;;;;;5045803;28;20041;-56
2023/09/06 10:08:09;;;;;;;3.22;2.88;;;24.80;57.00;;;;;;5043952;28;20069;-56
2023/09/06 10:10:40;;;;;;;3.17;2.70;;;24.90;56.50;;;;;;5057242;28;20044;-56
2023/09/06 10:13:08;;;;;;;3.73;3.23;;;24.90;56.50;;;;;;5044277;28;20050;-55
2023/09/06 10:15:37;;;;;;;3.72;2.70;;;25.00;56.60;;;;;;5053537;28;20462;-54
2023/09/06 10:18:06;;;;;;;3.80;2.83;;;25.10;56.10;;;;;;5051200;28;20526;-54
2023/09/06 10:20:35;;;;;;;3.08;2.53;;;25.20;56.00;;;;;;5052753;28;20766;-53
2023/09/06 10:23:05;;;;;;;3.50;2.85;;;25.20;56.40;;;;;;5047276;28;20068;-54
2023/09/06 10:25:37;;;;;;;6.25;2.70;;;25.30;56.00;;;;;;5050286;28;20048;-56
2023/09/06 10:28:04;;;;;;;3.03;2.70;;;25.40;55.90;;;;;;5046004;28;20055;-53
2023/09/06 10:30:44;;;;;;;4.05;3.10;;;25.40;55.50;;;;;;5047724;28;20049;-56
2023/09/06 10:33:34;;;;;;;3.17;2.47;;;25.60;55.40;;;;;;5047951;28;20045;-54
2023/09/06 10:36:07;;;;;;;3.20;2.88;;;25.60;54.00;;;;;;5052032;28;20091;-55
2023/09/06 10:38:51;;;;;;;4.38;2.92;;;25.70;54.60;;;;;;5045906;28;20045;-52
2023/09/06 10:41:22;;;;;;;3.88;2.90;;;25.80;54.20;;;;;;5043729;28;20064;-55
2023/09/06 10:43:48;;;;;;;4.38;2.88;;;25.90;54.30;;;;;;5049272;28;20090;-56
2023/09/06 10:46:18;;;;;;;2.80;2.45;;;25.90;54.40;;;;;;5052275;28;20044;-55
2023/09/06 10:49:22;;;;;;;2.40;2.20;;;26.00;54.60;;;;;;5049790;28;20041;-53
2023/09/06 10:52:03;;;;;;;3.47;2.58;;;26.10;54.80;;;;;;5044207;28;20116;-53
2023/09/06 10:54:44;;;;;;;3.85;2.75;;;26.20;53.80;;;;;;5044294;28;20119;-56
2023/09/06 10:57:13;;;;;;;4.07;3.13;;;26.30;52.90;;;;;;5044312;28;20041;-55
2023/09/06 10:59:43;;;;;;;2.83;2.47;;;26.30;53.60;;;;;;5041796;28;20045;-54
2023/09/06 11:02:21;;;;;;;2.83;2.63;;;26.40;52.70;;;;;;5041801;28;20720;-55
2023/09/06 11:05:08;;;;;;;4.72;2.97;;;26.50;52.70;;;;;;5048013;28;20032;-54
2023/09/06 11:07:43;;;;;;;4.03;2.65;;;26.60;53.20;;;;;;5042199;28;20446;-56
2023/09/06 11:10:24;;;;;;;4.18;2.63;;;26.60;52.40;;;;;;5044317;28;20529;-55
2023/09/06 11:12:54;;;;;;;3.92;3.00;;;26.70;52.40;;;;;;5045435;28;20494;-56
2023/09/06 11:15:22;;;;;;;4.30;2.90;;;26.80;52.20;;;;;;5043117;28;20123;-54
2023/09/06 11:17:52;;;;;;;3.28;2.97;;;26.80;51.80;;;;;;5045143;28;20076;-55
2023/09/06 11:20:20;;;;;;;5.53;2.80;;;26.90;51.50;;;;;;5043338;28;20044;-56
2023/09/06 11:22:51;;;;;;;3.65;2.70;;;27.00;51.00;;;;;;5045788;28;20719;-56
2023/09/06 11:25:22;;;;;;;3.58;2.67;;;27.00;50.20;;;;;;5034633;28;20033;-56
2023/09/06 11:27:50;;;;;;;4.30;2.90;;;27.10;49.00;;;;;;5037640;28;20043;-56
2023/09/06 11:30:26;;;;;;;9.32;3.67;;;27.10;50.30;;;;;;5039347;28;20120;-53
2023/09/06 11:32:55;;;;;;;4.32;3.00;;;27.20;50.00;;;;;;5038559;28;20043;-52
2023/09/06 11:35:31;;;;;;;5.85;2.88;;;27.30;50.20;;;;;;5039196;28;20042;-53
2023/09/06 11:37:58;;;;;;;3.28;2.75;;;27.40;49.30;;;;;;5040175;28;20403;-53
2023/09/06 11:40:28;;;;;;;3.90;3.08;;;27.40;49.90;;;;;;5039324;28;20115;-54
2023/09/06 11:42:58;;;;;;;3.60;2.80;;;27.50;49.30;;;;;;5038873;28;20510;-54
2023/09/06 11:45:30;;;;;;;4.53;3.13;;;27.60;48.50;;;;;;5039533;28;20073;-54
2023/09/06 11:48:02;;;;;;;3.95;2.60;;;27.70;48.60;;;;;;5041375;28;20076;-53
2023/09/06 11:50:29;;;;;;;3.35;3.05;;;27.70;48.30;;;;;;5037864;28;20515;-55
2023/09/06 11:53:02;;;;;;;3.50;3.20;;;27.80;48.10;;;;;;5042681;28;20041;-55
2023/09/06 11:55:34;;;;;;;3.58;2.85;;;27.90;47.50;;;;;;5040041;28;20056;-55
2023/09/06 11:58:00;;;;;;;3.00;2.70;;;27.90;47.30;;;;;;5041505;28;20468;-55
2023/09/06 12:00:45;;;;;;;3.53;3.17;;;28.00;48.60;;;;;;5042310;28;20136;-54
2023/09/06 12:03:13;;;;;;;3.55;2.75;;;28.10;47.40;;;;;;5045927;28;20040;-52
2023/09/06 12:05:46;;;;;;;5.07;2.70;;;28.20;47.50;;;;;;5041082;28;20041;-56
2023/09/06 12:08:22;;;;;;;3.08;2.78;;;28.30;46.90;;;;;;5042542;28;20033;-56
2023/09/06 12:10:54;;;;;;;5.25;3.15;;;28.40;46.60;;;;;;5049164;28;20094;-56
2023/09/06 12:13:34;;;;;;;3.47;2.67;;;28.50;46.10;;;;;;5041798;28;20048;-54
2023/09/06 12:16:02;;;;;;;4.15;3.03;;;28.60;46.10;;;;;;5041479;28;20048;-56
2023/09/06 12:18:29;;;;;;;3.15;2.85;;;28.60;45.60;;;;;;5043234;28;20063;-56
2023/09/06 12:20:58;;;;;;;3.03;2.65;;;28.70;46.10;;;;;;5051614;28;20049;-55
2023/09/06 12:23:28;;;;;;;4.43;3.20;;;28.80;45.90;;;;;;5044667;28;20048;-55
2023/09/06 12:25:57;;;;;;;2.97;2.67;;;28.80;46.20;;;;;;5160780;23;20045;-56
2023/09/06 12:28:24;;;;;;;2.97;2.78;;;28.90;45.80;;;;;;5047656;28;20107;-56
2023/09/06 12:30:55;;;;;;;3.50;2.80;;;29.00;45.30;;;;;;5044859;28;20037;-56
2023/09/06 12:33:22;;;;;;;3.00;2.80;;;29.10;45.20;;;;;;5046308;28;20524;-56
2023/09/06 12:35:58;;;;;;;3.22;2.92;;;29.10;45.30;;;;;;5034942;28;20092;-56
2023/09/06 12:38:26;;;;;;;5.85;2.88;;;29.20;45.50;;;;;;5024476;28;20092;-56
2023/09/06 12:40:54;;;;;;;3.65;2.40;;;29.30;45.50;;;;;;5025021;28;20051;-57
2023/09/06 12:43:22;;;;;;;5.70;2.65;;;29.30;44.40;;;;;;5025889;28;20520;-56
2023/09/06 12:45:48;;;;;;;2.88;2.65;;;29.50;43.30;;;;;;5027545;28;20116;-56
2023/09/06 12:48:16;;;;;;;3.35;2.50;;;29.50;42.80;;;;;;5021764;28;20523;-56
2023/09/06 12:50:43;;;;;;;2.80;2.60;;;29.60;42.60;;;;;;5016684;28;20045;-56
2023/09/06 12:53:10;;;;;;;4.60;2.40;;;29.60;42.60;;;;;;5030058;28;20033;-56
2023/09/06 12:55:37;;;;;;;4.88;3.00;;;29.70;43.10;;;;;;5016468;28;20559;-56
2023/09/06 12:58:04;;;;;;;3.08;2.78;;;29.80;43.30;;;;;;5035447;28;20125;-57
2023/09/06 13:00:33;;;;;;;5.40;2.78;;;29.90;43.40;;;;;;5029428;28;20133;-54
2023/09/06 13:03:02;;;;;;;4.25;2.80;;;30.00;43.10;;;;;;5026324;28;20053;-56